Time;durP1;ratioP1;P1;durP2;ratioP2;P2;SDS_P1;SDS_P2;PMS_P1;PMS_P2;Temp;Humidity;BMP_temperature;BMP_pressure;BME280_temperature;BME280_humidity;BME280_pressure;Samples;Min_cycle;Max_cycle;Signal;HPM_P1;HPM_P2
2023/05/05 00:00:50;;;;;;;6.22;3.70;;;17.80;54.20;;;;;;5053056;28;20036;-66
2023/05/05 00:03:17;;;;;;;5.22;3.67;;;17.80;54.20;;;;;;5051332;28;20395;-68
2023/05/05 00:05:42;;;;;;;7.25;4.70;;;17.80;54.20;;;;;;5052921;28;20033;-67
2023/05/05 00:08:08;;;;;;;5.20;4.18;;;17.80;54.30;;;;;;5052576;28;20025;-68
2023/05/05 00:10:33;;;;;;;5.97;4.50;;;17.80;54.20;;;;;;5052837;28;20032;-68
2023/05/05 00:12:59;;;;;;;5.75;3.83;;;17.80;54.30;;;;;;5052528;28;20023;-66
2023/05/05 00:15:26;;;;;;;7.63;4.35;;;17.80;54.30;;;;;;5052679;28;20025;-68
2023/05/05 00:17:51;;;;;;;6.07;3.92;;;17.70;54.60;;;;;;5052479;28;20021;-67
2023/05/05 00:20:17;;;;;;;5.68;3.80;;;17.70;54.70;;;;;;5052497;28;20033;-67
2023/05/05 00:22:43;;;;;;;5.20;3.35;;;17.70;54.70;;;;;;5052628;28;20021;-67
2023/05/05 00:25:08;;;;;;;5.55;3.58;;;17.80;54.70;;;;;;5052568;28;20037;-67
2023/05/05 00:27:34;;;;;;;4.90;3.78;;;17.80;54.70;;;;;;5052203;28;20029;-67
2023/05/05 00:30:00;;;;;;;4.43;3.40;;;17.80;54.70;;;;;;5052241;28;20487;-67
2023/05/05 00:32:26;;;;;;;5.78;3.80;;;17.80;54.70;;;;;;5052199;28;20104;-65
2023/05/05 00:34:52;;;;;;;5.97;4.00;;;17.70;54.90;;;;;;5052148;28;20474;-67
2023/05/05 00:37:18;;;;;;;6.68;4.03;;;17.70;55.00;;;;;;5052176;28;20048;-67
2023/05/05 00:39:44;;;;;;;4.93;3.78;;;17.70;55.00;;;;;;5052049;28;20017;-65
2023/05/05 00:42:09;;;;;;;4.80;3.83;;;17.70;55.10;;;;;;5051638;28;20060;-66
2023/05/05 00:44:38;;;;;;;4.65;4.15;;;17.70;55.10;;;;;;5052014;28;20085;-66
2023/05/05 00:47:04;;;;;;;5.18;4.38;;;17.70;55.20;;;;;;5052027;28;20020;-67
2023/05/05 00:49:31;;;;;;;6.75;4.85;;;17.70;55.20;;;;;;5051986;28;20099;-67
2023/05/05 00:51:58;;;;;;;4.88;4.10;;;17.60;55.50;;;;;;5051844;28;20041;-66
2023/05/05 00:54:23;;;;;;;6.50;4.18;;;17.60;55.50;;;;;;5051911;28;20103;-67
2023/05/05 00:56:50;;;;;;;7.43;5.20;;;17.60;55.60;;;;;;5051638;28;20152;-67
2023/05/05 00:59:16;;;;;;;7.10;4.85;;;17.60;55.70;;;;;;5051718;28;20017;-67
2023/05/05 01:01:42;;;;;;;6.03;3.95;;;17.60;55.60;;;;;;5051616;28;20029;-66
2023/05/05 01:04:07;;;;;;;5.28;4.53;;;17.60;55.60;;;;;;5051710;28;20515;-67
2023/05/05 01:06:41;;;;;;;6.10;4.28;;;17.70;55.70;;;;;;5051751;28;20029;-68
2023/05/05 01:09:21;;;;;;;7.65;4.00;;;17.70;55.70;;;;;;5051634;28;20554;-67
2023/05/05 01:12:13;;;;;;;6.72;4.28;;;17.70;55.70;;;;;;5051393;28;20108;-68
2023/05/05 01:14:44;;;;;;;6.10;4.22;;;17.70;55.80;;;;;;5051669;28;20074;-66
2023/05/05 01:17:16;;;;;;;6.70;4.85;;;17.60;55.90;;;;;;5051693;28;20013;-67
2023/05/05 01:20:07;;;;;;;5.90;4.50;;;17.60;56.20;;;;;;5050296;28;20104;-67
2023/05/05 01:22:45;;;;;;;7.43;5.20;;;17.60;56.30;;;;;;5051410;28;20048;-67
2023/05/05 01:25:25;;;;;;;7.75;4.90;;;17.60;56.60;;;;;;5051406;28;20234;-66
2023/05/05 01:28:07;;;;;;;7.30;5.93;;;17.60;56.60;;;;;;5051654;28;20082;-66
2023/05/05 01:30:53;;;;;;;9.00;6.85;;;17.60;56.90;;;;;;5051811;28;20021;-66
2023/05/05 01:33:24;;;;;;;9.20;6.82;;;17.60;57.10;;;;;;5051440;28;20075;-66
2023/05/05 01:35:54;;;;;;;12.27;7.77;;;17.60;57.50;;;;;;5051334;28;20052;-67
2023/05/05 01:38:35;;;;;;;9.00;7.95;;;17.50;57.90;;;;;;5051054;28;20350;-68
2023/05/05 01:41:11;;;;;;;10.77;7.80;;;17.60;58.20;;;;;;5049736;28;20021;-68
2023/05/05 01:43:38;;;;;;;10.27;8.57;;;17.60;58.60;;;;;;5051063;28;20211;-68
2023/05/05 01:46:06;;;;;;;10.32;7.78;;;17.60;59.10;;;;;;5051049;28;20025;-66
2023/05/05 01:48:32;;;;;;;8.63;7.05;;;17.60;59.40;;;;;;5050721;28;20021;-67
2023/05/05 01:51:01;;;;;;;10.40;7.85;;;17.60;59.40;;;;;;5051311;28;20029;-67
2023/05/05 01:53:27;;;;;;;8.57;7.18;;;17.60;59.70;;;;;;5050279;28;20447;-67
2023/05/05 01:55:53;;;;;;;11.10;8.55;;;17.60;59.90;;;;;;5050833;28;20049;-66
2023/05/05 01:58:21;;;;;;;9.70;7.43;;;17.50;60.50;;;;;;5050579;28;20036;-68
2023/05/05 02:00:48;;;;;;;7.90;6.55;;;17.60;60.60;;;;;;5050704;28;20590;-66
2023/05/05 02:03:16;;;;;;;7.90;6.18;;;17.50;60.50;;;;;;5050889;28;20123;-66
2023/05/05 02:05:43;;;;;;;8.23;6.95;;;17.50;60.50;;;;;;5050534;28;20082;-67
2023/05/05 02:08:10;;;;;;;11.20;8.00;;;17.60;60.80;;;;;;5051167;28;20408;-67
2023/05/05 02:10:39;;;;;;;11.98;8.20;;;17.50;61.10;;;;;;5050278;28;20057;-67
2023/05/05 02:13:06;;;;;;;10.13;7.65;;;17.50;61.60;;;;;;5050660;28;20049;-66
2023/05/05 02:15:34;;;;;;;10.13;7.93;;;17.50;62.20;;;;;;5050672;28;20024;-66
2023/05/05 02:18:04;;;;;;;8.05;6.55;;;17.40;62.40;;;;;;5049274;28;20364;-67
2023/05/05 02:20:30;;;;;;;8.85;7.43;;;17.40;62.40;;;;;;5050643;28;20025;-68
2023/05/05 02:22:56;;;;;;;6.93;5.78;;;17.40;62.60;;;;;;5050476;28;20486;-67
2023/05/05 02:25:25;;;;;;;7.60;6.15;;;17.40;62.50;;;;;;5050126;28;20041;-67
2023/05/05 02:27:55;;;;;;;8.35;6.43;;;17.40;62.60;;;;;;5048954;28;20085;-68
2023/05/05 02:30:22;;;;;;;6.85;5.75;;;17.40;63.00;;;;;;5050337;28;20078;-66
2023/05/05 02:32:59;;;;;;;9.05;6.50;;;17.30;63.10;;;;;;5050237;28;20017;-67
2023/05/05 02:35:31;;;;;;;6.90;5.20;;;17.30;63.20;;;;;;5050118;28;20021;-67
2023/05/05 02:38:01;;;;;;;6.95;5.28;;;17.30;63.20;;;;;;5050151;28;20051;-67
2023/05/05 02:40:30;;;;;;;6.72;5.50;;;17.30;63.30;;;;;;5049987;28;20029;-67
2023/05/05 02:42:58;;;;;;;8.15;5.63;;;17.30;63.40;;;;;;5050114;28;20442;-67
2023/05/05 02:45:26;;;;;;;6.90;4.93;;;17.30;63.50;;;;;;5050067;28;20127;-68
2023/05/05 02:47:52;;;;;;;6.85;5.40;;;17.20;63.70;;;;;;5049899;28;20120;-67
2023/05/05 02:50:17;;;;;;;5.43;4.75;;;17.20;63.70;;;;;;5050149;28;20104;-67
2023/05/05 02:52:43;;;;;;;6.53;5.05;;;17.20;63.70;;;;;;5049945;28;20175;-67
2023/05/05 02:55:10;;;;;;;5.68;4.72;;;17.20;63.90;;;;;;5050194;28;20025;-67
2023/05/05 02:58:03;;;;;;;8.07;4.70;;;17.20;64.00;;;;;;5049860;28;20422;-67
2023/05/05 03:00:52;;;;;;;7.00;5.15;;;17.10;64.10;;;;;;5049243;28;20032;-67
2023/05/05 03:03:42;;;;;;;6.72;5.10;;;17.00;64.70;;;;;;5049910;28;20321;-66
2023/05/05 03:06:16;;;;;;;5.93;4.93;;;17.00;65.00;;;;;;5052973;28;20033;-66
2023/05/05 03:08:49;;;;;;;6.45;4.85;;;16.90;65.10;;;;;;5053636;28;20017;-66
2023/05/05 03:11:27;;;;;;;6.50;5.30;;;16.90;65.40;;;;;;5053981;28;20025;-67
2023/05/05 03:14:07;;;;;;;5.20;4.28;;;16.80;65.60;;;;;;5053903;28;20053;-68
2023/05/05 03:16:35;;;;;;;5.40;4.80;;;16.80;65.60;;;;;;5053784;28;20017;-67
2023/05/05 03:19:03;;;;;;;6.43;4.75;;;16.80;65.80;;;;;;5053565;28;20102;-67
2023/05/05 03:21:29;;;;;;;6.55;4.78;;;16.80;65.80;;;;;;5053751;28;20365;-66
2023/05/05 03:23:55;;;;;;;7.47;5.25;;;16.70;65.90;;;;;;5053597;28;20280;-66
2023/05/05 03:26:21;;;;;;;6.45;5.57;;;16.70;66.00;;;;;;5053517;28;20112;-67
2023/05/05 03:28:46;;;;;;;6.60;5.70;;;16.60;66.20;;;;;;5053362;28;20100;-66
2023/05/05 03:31:12;;;;;;;6.20;5.20;;;16.60;66.60;;;;;;5053533;28;20028;-67
2023/05/05 03:33:38;;;;;;;8.95;6.00;;;16.60;66.70;;;;;;5053426;28;20029;-67
2023/05/05 03:36:03;;;;;;;6.28;5.32;;;16.50;67.00;;;;;;5053673;28;20021;-67
2023/05/05 03:38:29;;;;;;;6.80;6.10;;;16.50;67.00;;;;;;5053284;28;20025;-66
2023/05/05 03:40:55;;;;;;;7.88;5.57;;;16.40;67.30;;;;;;5053844;28;20033;-66
2023/05/05 03:43:20;;;;;;;8.27;5.20;;;16.40;67.40;;;;;;5051937;28;20119;-67
2023/05/05 03:45:46;;;;;;;6.53;5.03;;;16.40;67.30;;;;;;5053511;28;20033;-68
2023/05/05 03:48:11;;;;;;;5.97;5.03;;;16.40;67.90;;;;;;5053288;28;20021;-66
2023/05/05 03:50:37;;;;;;;5.82;5.13;;;16.40;67.30;;;;;;5053677;28;20017;-66
2023/05/05 03:53:02;;;;;;;7.13;5.47;;;16.40;67.30;;;;;;5053908;28;20369;-67
2023/05/05 03:55:28;;;;;;;9.07;5.80;;;16.30;67.50;;;;;;5053399;28;20494;-65
2023/05/05 03:57:53;;;;;;;6.53;5.53;;;16.30;67.80;;;;;;5053086;28;20029;-66
2023/05/05 04:00:19;;;;;;;7.55;6.55;;;16.20;68.10;;;;;;5052957;28;20025;-66
2023/05/05 04:02:45;;;;;;;7.38;6.55;;;16.10;68.20;;;;;;5053381;28;20025;-68
2023/05/05 04:05:10;;;;;;;9.30;7.22;;;16.10;68.50;;;;;;5052844;28;20025;-66
2023/05/05 04:07:36;;;;;;;11.25;8.57;;;16.10;68.70;;;;;;5052724;28;20143;-66
2023/05/05 04:10:01;;;;;;;9.68;7.97;;;16.10;69.30;;;;;;5052756;28;20361;-67
2023/05/05 04:12:27;;;;;;;9.85;7.97;;;16.00;69.30;;;;;;5052837;28;20025;-67
2023/05/05 04:14:52;;;;;;;11.15;9.40;;;16.00;69.60;;;;;;5052567;28;20127;-66
2023/05/05 04:17:18;;;;;;;10.55;9.18;;;15.90;70.70;;;;;;5052065;28;20029;-66
2023/05/05 04:19:43;;;;;;;9.70;8.38;;;15.90;70.40;;;;;;5052734;28;20040;-67
2023/05/05 04:22:09;;;;;;;12.00;9.75;;;15.80;70.60;;;;;;5052411;28;20025;-66
2023/05/05 04:24:35;;;;;;;9.30;8.27;;;15.80;71.30;;;;;;5052564;28;20060;-66
2023/05/05 04:27:01;;;;;;;11.98;8.57;;;15.80;71.50;;;;;;5052521;28;20045;-66
2023/05/05 04:29:26;;;;;;;10.02;8.32;;;15.80;71.40;;;;;;5052335;28;20086;-66
2023/05/05 04:31:53;;;;;;;8.40;7.18;;;15.80;71.70;;;;;;5052190;28;20029;-67
2023/05/05 04:34:18;;;;;;;8.68;6.63;;;15.80;71.70;;;;;;5052354;28;20017;-67
2023/05/05 04:36:44;;;;;;;8.40;7.13;;;15.80;71.60;;;;;;5052385;28;20375;-66
2023/05/05 04:39:09;;;;;;;9.23;6.93;;;15.80;71.80;;;;;;5052294;28;20384;-66
2023/05/05 04:41:35;;;;;;;8.02;6.88;;;15.80;71.80;;;;;;5052203;28;20028;-67
2023/05/05 04:44:00;;;;;;;7.32;6.20;;;15.90;71.90;;;;;;5050991;28;20086;-68
2023/05/05 04:46:26;;;;;;;7.63;6.70;;;15.90;72.00;;;;;;5051849;28;20020;-68
2023/05/05 04:48:51;;;;;;;8.35;6.53;;;15.80;72.30;;;;;;5052022;28;20036;-66
2023/05/05 04:51:17;;;;;;;7.78;5.85;;;15.80;72.50;;;;;;5052051;28;20091;-67
2023/05/05 04:53:43;;;;;;;9.43;5.85;;;15.80;72.50;;;;;;5051833;28;20036;-67
2023/05/05 04:56:08;;;;;;;6.35;5.57;;;15.90;72.60;;;;;;5052019;28;20017;-67
2023/05/05 04:58:34;;;;;;;8.35;6.75;;;15.80;73.30;;;;;;5051728;28;20025;-66
2023/05/05 05:01:00;;;;;;;7.88;5.78;;;15.80;73.50;;;;;;5052268;28;20048;-66
2023/05/05 05:03:25;;;;;;;7.15;5.47;;;15.80;73.60;;;;;;5051712;28;20064;-66
2023/05/05 05:05:51;;;;;;;7.82;5.93;;;15.80;73.50;;;;;;5051670;28;20057;-65
2023/05/05 05:08:16;;;;;;;6.55;5.10;;;15.80;73.60;;;;;;5051456;28;20388;-67
2023/05/05 05:10:43;;;;;;;8.38;5.88;;;15.90;73.80;;;;;;5050331;28;20467;-66
2023/05/05 05:13:09;;;;;;;9.00;6.15;;;15.90;73.80;;;;;;5050256;28;20021;-66
2023/05/05 05:15:37;;;;;;;7.78;5.97;;;16.00;74.00;;;;;;5051950;28;20028;-66
2023/05/05 05:18:03;;;;;;;9.85;5.97;;;16.00;74.30;;;;;;5051314;28;20016;-66
2023/05/05 05:20:29;;;;;;;5.93;4.97;;;16.20;74.40;;;;;;5051521;28;20029;-66
2023/05/05 05:22:56;;;;;;;7.38;5.78;;;17.00;73.50;;;;;;5051638;28;20049;-67
2023/05/05 05:25:21;;;;;;;8.20;5.97;;;17.90;71.10;;;;;;5051462;28;20040;-68
2023/05/05 05:27:47;;;;;;;8.32;5.68;;;18.80;68.70;;;;;;5051019;28;20017;-68
2023/05/05 05:30:13;;;;;;;8.10;5.47;;;19.40;66.20;;;;;;5051144;28;20029;-68
2023/05/05 05:32:38;;;;;;;5.35;4.35;;;20.10;64.80;;;;;;5051286;28;20021;-66
2023/05/05 05:35:04;;;;;;;6.40;4.90;;;21.00;62.80;;;;;;5050957;28;20017;-66
2023/05/05 05:37:30;;;;;;;7.15;4.65;;;21.60;60.80;;;;;;5051218;28;20025;-66
2023/05/05 05:39:55;;;;;;;8.05;5.20;;;22.20;59.50;;;;;;5050916;28;20021;-68
2023/05/05 05:42:21;;;;;;;8.15;5.35;;;22.50;58.10;;;;;;5051090;28;20037;-66
2023/05/05 05:44:47;;;;;;;8.05;5.13;;;23.00;57.20;;;;;;5050919;28;20296;-66
2023/05/05 05:47:13;;;;;;;7.18;4.80;;;23.50;56.10;;;;;;5049527;28;20075;-67
2023/05/05 05:49:38;;;;;;;7.93;4.30;;;23.70;55.30;;;;;;5050649;28;20498;-67
2023/05/05 05:52:04;;;;;;;6.00;4.60;;;24.00;54.50;;;;;;5050826;28;20029;-68
2023/05/05 05:54:31;;;;;;;5.55;4.10;;;24.20;54.10;;;;;;5050826;28;20031;-69
2023/05/05 05:56:57;;;;;;;7.18;4.90;;;24.50;53.50;;;;;;5050623;28;20075;-66
2023/05/05 05:59:22;;;;;;;7.00;4.82;;;25.00;52.50;;;;;;5050774;28;20033;-68
2023/05/05 06:01:48;;;;;;;7.35;4.55;;;25.80;51.50;;;;;;5050676;28;20033;-66
2023/05/05 06:04:13;;;;;;;5.68;4.68;;;26.30;50.40;;;;;;5050740;28;20063;-66
2023/05/05 06:06:39;;;;;;;6.13;4.60;;;26.50;50.10;;;;;;5050710;28;20100;-66
2023/05/05 06:09:04;;;;;;;8.20;5.47;;;26.60;49.30;;;;;;5050902;28;20163;-69
2023/05/05 06:11:30;;;;;;;6.05;4.32;;;27.00;48.60;;;;;;5051239;28;20543;-66
2023/05/05 06:13:56;;;;;;;7.00;4.35;;;27.20;48.00;;;;;;5050962;28;20082;-68
2023/05/05 06:16:21;;;;;;;4.90;3.63;;;27.60;47.60;;;;;;5050591;28;20017;-66
2023/05/05 06:18:47;;;;;;;6.15;4.40;;;28.00;46.90;;;;;;5050385;28;20111;-67
2023/05/05 06:21:12;;;;;;;6.75;4.95;;;28.20;46.00;;;;;;5050352;28;20029;-65
2023/05/05 06:23:38;;;;;;;5.28;3.95;;;28.40;45.70;;;;;;5050374;28;20478;-66
2023/05/05 06:26:03;;;;;;;6.05;3.90;;;28.70;45.40;;;;;;5050147;28;20029;-68
2023/05/05 06:28:29;;;;;;;6.82;4.45;;;29.00;45.10;;;;;;5049902;28;20447;-66
2023/05/05 06:30:55;;;;;;;6.65;3.95;;;29.20;44.50;;;;;;5050147;28;20031;-66
2023/05/05 06:33:20;;;;;;;5.55;4.25;;;29.20;44.50;;;;;;5049939;28;20013;-66
2023/05/05 06:35:48;;;;;;;6.47;4.70;;;29.00;44.30;;;;;;5050334;28;20079;-66
2023/05/05 06:38:14;;;;;;;5.75;3.70;;;28.60;44.70;;;;;;5049921;28;20537;-67
2023/05/05 06:40:39;;;;;;;7.35;3.95;;;28.70;45.00;;;;;;5049645;28;20033;-67
2023/05/05 06:43:05;;;;;;;5.05;3.85;;;29.00;44.60;;;;;;5050034;28;20021;-66
2023/05/05 06:45:30;;;;;;;5.82;3.85;;;29.10;44.20;;;;;;5048662;28;20123;-67
2023/05/05 06:47:56;;;;;;;5.32;3.40;;;29.10;44.20;;;;;;5049619;28;20032;-66
2023/05/05 06:50:21;;;;;;;6.28;3.80;;;29.00;44.60;;;;;;5045462;28;20033;-66
2023/05/05 06:52:47;;;;;;;8.52;3.42;;;29.10;44.30;;;;;;5044564;28;20600;-66
2023/05/05 06:55:12;;;;;;;5.32;4.00;;;29.10;44.50;;;;;;5049688;28;20041;-67
2023/05/05 06:57:38;;;;;;;5.70;3.20;;;29.00;44.60;;;;;;5049554;28;20032;-68
2023/05/05 07:00:05;;;;;;;5.05;2.58;;;28.90;44.60;;;;;;5050190;28;20033;-66
2023/05/05 07:02:32;;;;;;;4.60;2.90;;;29.00;44.50;;;;;;5049858;28;20063;-67
2023/05/05 07:04:57;;;;;;;4.70;3.10;;;28.90;44.50;;;;;;5049624;28;20473;-67
2023/05/05 07:07:23;;;;;;;5.53;3.40;;;29.00;44.40;;;;;;5049810;28;20111;-67
2023/05/05 07:09:49;;;;;;;4.78;3.00;;;28.70;44.20;;;;;;5049710;28;20136;-67
2023/05/05 07:12:14;;;;;;;5.22;2.90;;;28.60;44.50;;;;;;5048273;28;20364;-66
2023/05/05 07:14:40;;;;;;;5.05;2.97;;;28.50;44.50;;;;;;5049560;28;20677;-66
2023/05/05 07:17:05;;;;;;;5.55;3.53;;;28.30;44.90;;;;;;5049558;28;20033;-66
2023/05/05 07:19:31;;;;;;;5.35;3.30;;;27.60;45.20;;;;;;5049236;28;20021;-66
2023/05/05 07:21:56;;;;;;;4.85;3.50;;;27.10;46.10;;;;;;5049593;28;20113;-66
2023/05/05 07:24:23;;;;;;;5.28;3.47;;;27.30;46.70;;;;;;5049511;28;20029;-67
2023/05/05 07:26:48;;;;;;;4.15;3.30;;;27.20;46.30;;;;;;5049369;28;20041;-67
2023/05/05 07:29:14;;;;;;;4.25;3.28;;;27.50;46.30;;;;;;5049366;28;20052;-66
2023/05/05 07:31:40;;;;;;;5.25;3.28;;;27.60;46.20;;;;;;5049792;28;20487;-67
2023/05/05 07:34:05;;;;;;;5.28;3.53;;;27.50;46.20;;;;;;5049521;28;20028;-67
2023/05/05 07:36:31;;;;;;;4.75;3.13;;;27.40;46.50;;;;;;5049574;28;20025;-66
2023/05/05 07:38:57;;;;;;;6.13;4.07;;;27.40;46.70;;;;;;5049656;28;20657;-67
2023/05/05 07:41:22;;;;;;;4.72;3.85;;;27.30;46.90;;;;;;5049685;28;20107;-65
2023/05/05 07:43:48;;;;;;;5.03;3.92;;;27.00;47.20;;;;;;5049839;28;20021;-66
2023/05/05 07:46:13;;;;;;;4.30;3.28;;;26.50;47.60;;;;;;5049472;28;20025;-67
2023/05/05 07:48:40;;;;;;;4.15;3.10;;;25.90;48.30;;;;;;5049374;28;20029;-66
2023/05/05 07:51:05;;;;;;;5.75;3.40;;;25.50;48.70;;;;;;5049545;28;20013;-68
2023/05/05 07:53:31;;;;;;;5.00;3.60;;;25.20;49.20;;;;;;5052906;28;20387;-68
2023/05/05 07:55:57;;;;;;;4.40;3.00;;;25.00;49.60;;;;;;5052744;28;20412;-67
2023/05/05 07:58:22;;;;;;;5.45;2.90;;;24.80;49.90;;;;;;5052849;28;20032;-66
2023/05/05 08:00:49;;;;;;;4.65;2.95;;;24.60;50.10;;;;;;5052853;28;20028;-68
2023/05/05 08:03:15;;;;;;;4.47;2.90;;;24.50;50.70;;;;;;5052842;28;20108;-67
2023/05/05 08:05:40;;;;;;;3.78;2.40;;;24.30;50.80;;;;;;5053027;28;20138;-67
2023/05/05 08:08:06;;;;;;;4.38;2.72;;;24.20;50.60;;;;;;5052435;28;20057;-67
2023/05/05 08:10:32;;;;;;;3.75;2.80;;;24.00;50.70;;;;;;5052859;28;20500;-68
2023/05/05 08:12:57;;;;;;;4.38;3.17;;;23.90;50.80;;;;;;5052812;28;20140;-66
2023/05/05 08:15:23;;;;;;;4.63;2.72;;;23.90;51.00;;;;;;5052719;28;20009;-66
2023/05/05 08:17:50;;;;;;;4.40;2.47;;;23.90;51.00;;;;;;5052700;28;20025;-66
2023/05/05 08:20:17;;;;;;;4.45;2.50;;;23.80;51.10;;;;;;5053105;28;20021;-66
2023/05/05 08:22:43;;;;;;;36.92;5.32;;;23.90;51.40;;;;;;5052691;28;20423;-67
2023/05/05 08:25:10;;;;;;;12.25;4.10;;;23.90;51.30;;;;;;5052523;28;20059;-66
2023/05/05 08:27:37;;;;;;;5.38;2.90;;;23.90;51.40;;;;;;5052911;28;20025;-66
2023/05/05 08:30:03;;;;;;;5.05;2.80;;;23.90;51.50;;;;;;5052822;28;20055;-67
2023/05/05 08:32:28;;;;;;;6.85;3.05;;;24.00;51.60;;;;;;5052344;28;20032;-66
2023/05/05 08:34:55;;;;;;;5.03;2.78;;;24.10;51.40;;;;;;5052575;28;20051;-66
2023/05/05 08:37:21;;;;;;;6.50;4.13;;;24.30;51.40;;;;;;5052270;28;20021;-66
2023/05/05 08:39:46;;;;;;;5.72;3.22;;;24.20;51.30;;;;;;5052127;28;20021;-67
2023/05/05 08:42:12;;;;;;;5.18;3.50;;;24.20;51.40;;;;;;5052100;28;20040;-66
2023/05/05 08:44:37;;;;;;;4.22;3.20;;;24.10;51.50;;;;;;5052055;28;20036;-68
2023/05/05 08:47:04;;;;;;;5.57;3.72;;;24.20;51.80;;;;;;5051948;28;20096;-67
2023/05/05 08:49:38;;;;;;;5.90;3.45;;;24.10;51.60;;;;;;5051828;28;20035;-68
2023/05/05 08:52:06;;;;;;;6.90;3.40;;;24.10;51.70;;;;;;5052438;28;20021;-69
2023/05/05 08:54:36;;;;;;;5.30;3.08;;;24.30;51.70;;;;;;5051731;28;20463;-67
2023/05/05 08:57:05;;;;;;;5.90;3.83;;;24.40;51.50;;;;;;5051914;28;20025;-69
2023/05/05 08:59:32;;;;;;;5.22;3.00;;;24.30;51.10;;;;;;5051684;28;20390;-68
2023/05/05 09:01:59;;;;;;;4.75;2.90;;;24.50;51.10;;;;;;5051731;28;20105;-67
2023/05/05 09:04:25;;;;;;;3.97;2.78;;;24.60;50.80;;;;;;5051587;28;20048;-68
2023/05/05 09:06:51;;;;;;;5.20;3.10;;;24.80;50.40;;;;;;5051551;28;20515;-67
2023/05/05 09:09:18;;;;;;;5.15;3.55;;;24.80;50.20;;;;;;5051353;28;20021;-69
2023/05/05 09:11:44;;;;;;;4.97;3.40;;;24.70;50.00;;;;;;5051602;28;20021;-66
2023/05/05 09:14:10;;;;;;;5.70;3.50;;;24.60;50.10;;;;;;5051652;28;20388;-67
2023/05/05 09:16:41;;;;;;;4.25;2.53;;;24.50;49.90;;;;;;5051233;28;20083;-67
2023/05/05 09:19:07;;;;;;;;;;;24.30;50.00;;;;;;5051816;28;20025;-68
2023/05/05 09:21:32;;;;;;;3.83;2.90;;;24.30;50.10;;;;;;5051158;28;19934;-67
2023/05/05 09:24:08;;;;;;;5.40;2.80;;;24.20;50.10;;;;;;5051372;28;20028;-67
2023/05/05 09:26:36;;;;;;;2.70;1.95;;;24.00;49.80;;;;;;5051075;28;20032;-68
2023/05/05 09:29:02;;;;;;;2.85;1.92;;;23.90;50.10;;;;;;5051167;28;20028;-67
2023/05/05 09:31:32;;;;;;;3.97;2.00;;;23.90;50.10;;;;;;5049624;28;20021;-67
2023/05/05 09:34:03;;;;;;;3.15;1.83;;;23.90;50.00;;;;;;5051053;28;20025;-68
2023/05/05 09:37:00;;;;;;;3.33;1.60;;;23.90;50.10;;;;;;5050912;28;20017;-68
2023/05/05 09:39:26;;;;;;;2.80;1.80;;;24.00;49.80;;;;;;5027783;28;20025;-68
2023/05/05 09:41:51;;;;;;;3.42;1.65;;;24.10;49.70;;;;;;5050857;28;20024;-67
2023/05/05 09:44:35;;;;;;;4.10;2.10;;;24.00;49.70;;;;;;5050643;28;20021;-68
2023/05/05 09:47:00;;;;;;;4.25;2.00;;;23.90;49.60;;;;;;5050715;28;20021;-68
2023/05/05 09:49:26;;;;;;;4.28;2.05;;;23.80;50.00;;;;;;5050830;28;20021;-68
2023/05/05 09:51:53;;;;;;;2.13;1.58;;;23.90;50.10;;;;;;5050681;28;20045;-68
2023/05/05 09:54:29;;;;;;;3.55;2.33;;;24.00;50.00;;;;;;5049396;28;20028;-68
2023/05/05 09:56:56;;;;;;;4.65;3.42;;;24.00;49.80;;;;;;5050511;28;20483;-67
2023/05/05 09:59:22;;;;;;;5.40;3.00;;;24.00;50.00;;;;;;5050598;28;20472;-68
2023/05/05 10:01:50;;;;;;;6.70;3.13;;;24.00;50.10;;;;;;5050476;28;20067;-68
2023/05/05 10:04:26;;;;;;;7.97;3.70;;;23.90;50.30;;;;;;5050575;28;20025;-68
2023/05/05 10:06:54;;;;;;;4.35;2.90;;;23.90;50.40;;;;;;5050342;28;20029;-68
2023/05/05 10:09:19;;;;;;;3.55;2.47;;;23.90;50.60;;;;;;5050358;28;20028;-68
2023/05/05 10:11:46;;;;;;;3.42;2.15;;;23.90;50.50;;;;;;5050481;28;20025;-67
2023/05/05 10:14:16;;;;;;;3.88;2.22;;;23.90;50.40;;;;;;5049761;28;20024;-68
2023/05/05 10:16:47;;;;;;;3.90;2.42;;;23.90;50.30;;;;;;5050402;28;20029;-69
2023/05/05 10:19:15;;;;;;;3.85;2.50;;;23.90;50.30;;;;;;5050239;28;20120;-68
2023/05/05 10:21:47;;;;;;;5.50;3.38;;;23.70;50.50;;;;;;5050181;28;20036;-67
2023/05/05 10:24:15;;;;;;;;;;;23.60;51.10;;;;;;5050669;28;20021;-68
2023/05/05 10:26:42;;;;;;;7.57;3.75;;;23.50;51.40;;;;;;5050411;28;19913;-68
2023/05/05 10:29:19;;;;;;;5.35;4.20;;;23.30;51.60;;;;;;5049942;28;20025;-67
2023/05/05 10:31:48;;;;;;;7.55;3.47;;;23.20;51.90;;;;;;5050323;28;20017;-66
2023/05/05 10:34:45;;;;;;;4.85;3.40;;;22.90;52.10;;;;;;5050148;28;20051;-66
2023/05/05 10:37:11;;;;;;;4.75;3.10;;;22.80;52.40;;;;;;5046776;28;20037;-68
2023/05/05 10:39:37;;;;;;;3.20;2.42;;;22.90;52.50;;;;;;5050061;28;20094;-67
2023/05/05 10:42:02;;;;;;;4.40;2.92;;;23.00;52.40;;;;;;5050241;28;20032;-66
2023/05/05 10:44:32;;;;;;;4.45;2.97;;;23.10;52.40;;;;;;5050020;28;20391;-67
2023/05/05 10:46:58;;;;;;;4.47;2.75;;;23.00;52.40;;;;;;5049920;28;20395;-68
2023/05/05 10:49:29;;;;;;;4.15;2.83;;;23.10;52.40;;;;;;5049935;28;20029;-68
2023/05/05 10:51:57;;;;;;;5.43;2.90;;;23.20;52.30;;;;;;5049032;28;20467;-67
2023/05/05 10:54:35;;;;;;;3.67;2.58;;;23.10;52.20;;;;;;5050225;28;20448;-67
2023/05/05 10:57:03;;;;;;;3.53;2.30;;;23.30;52.20;;;;;;5050409;28;20388;-67
2023/05/05 10:59:37;;;;;;;3.50;2.38;;;23.30;51.80;;;;;;5050525;28;20055;-68
2023/05/05 11:02:22;;;;;;;3.60;2.40;;;23.30;51.90;;;;;;5050172;28;20032;-67
2023/05/05 11:05:07;;;;;;;4.22;2.63;;;23.30;52.00;;;;;;5049830;28;20025;-69
2023/05/05 11:07:33;;;;;;;4.10;2.42;;;23.30;52.10;;;;;;5049791;28;20025;-67
2023/05/05 11:10:01;;;;;;;5.15;2.20;;;23.30;52.10;;;;;;5050261;28;20025;-68
2023/05/05 11:12:27;;;;;;;3.95;2.42;;;23.30;52.10;;;;;;5049936;28;20018;-68
2023/05/05 11:15:21;;;;;;;4.47;2.20;;;23.30;52.30;;;;;;5049890;28;20503;-68
2023/05/05 11:17:46;;;;;;;2.53;1.60;;;23.20;52.40;;;;;;5049753;28;20047;-69
2023/05/05 11:20:12;;;;;;;3.78;1.88;;;23.20;52.50;;;;;;5049702;28;20442;-68
2023/05/05 11:23:02;;;;;;;4.35;2.70;;;23.10;52.60;;;;;;5049598;28;20040;-67
2023/05/05 11:25:34;;;;;;;4.53;3.10;;;23.00;52.50;;;;;;5049870;28;20068;-67
2023/05/05 11:28:07;;;;;;;5.50;2.50;;;22.80;53.30;;;;;;5053207;28;20108;-68
2023/05/05 11:30:33;;;;;;;4.45;2.05;;;22.60;55.10;;;;;;5053391;28;20021;-68
2023/05/05 11:33:22;;;;;;;3.63;1.80;;;22.50;55.10;;;;;;5053327;28;20480;-68
2023/05/05 11:36:04;;;;;;;4.35;1.42;;;22.40;55.40;;;;;;5043124;28;20040;-67
2023/05/05 11:38:36;;;;;;;;;;;22.30;55.90;;;;;;5052244;28;20067;-68
2023/05/05 11:41:23;;;;;;;2.22;1.08;;;22.20;56.20;;;;;;5053234;28;19931;-69
2023/05/05 11:43:49;;;;;;;1.83;1.30;;;22.00;56.80;;;;;;5053015;28;20048;-67
2023/05/05 11:46:15;;;;;;;1.63;1.30;;;21.80;57.50;;;;;;5053039;28;20061;-68
2023/05/05 11:48:48;;;;;;;0.98;0.50;;;21.60;57.60;;;;;;5053097;28;20067;-68
2023/05/05 11:51:15;;;;;;;0.95;0.50;;;20.80;57.50;;;;;;5053100;28;20025;-68
2023/05/05 11:53:46;;;;;;;0.95;0.40;;;20.10;58.80;;;;;;5052733;28;20049;-69
2023/05/05 11:56:18;;;;;;;0.77;0.43;;;19.50;60.30;;;;;;5052866;28;20419;-67
2023/05/05 11:58:47;;;;;;;0.30;0.30;;;19.00;61.50;;;;;;5052907;28;20029;-67
2023/05/05 12:01:14;;;;;;;0.40;0.30;;;18.70;62.70;;;;;;5052913;28;20031;-67
2023/05/05 12:03:40;;;;;;;0.93;0.50;;;18.40;63.60;;;;;;5052680;28;20383;-68
2023/05/05 12:06:07;;;;;;;1.38;0.60;;;18.10;64.80;;;;;;5052785;28;20029;-68
2023/05/05 12:08:39;;;;;;;0.45;0.40;;;17.90;65.80;;;;;;5052632;28;20037;-67
2023/05/05 12:11:10;;;;;;;0.95;0.50;;;17.70;66.70;;;;;;5052608;28;20108;-66
2023/05/05 12:13:35;;;;;;;2.05;1.20;;;17.60;67.30;;;;;;5052639;28;20025;-67
2023/05/05 12:16:12;;;;;;;3.53;1.63;;;17.50;68.00;;;;;;5052694;28;20043;-68
2023/05/05 12:18:38;;;;;;;1.60;0.90;;;17.30;69.40;;;;;;5052330;28;20025;-67
2023/05/05 12:21:16;;;;;;;1.33;0.98;;;17.20;70.20;;;;;;5052553;28;20024;-67
2023/05/05 12:23:42;;;;;;;1.83;1.10;;;17.10;71.10;;;;;;5051146;28;20025;-69
2023/05/05 12:26:26;;;;;;;1.25;0.80;;;16.90;71.70;;;;;;5052368;28;20082;-67
2023/05/05 12:28:52;;;;;;;0.75;0.60;;;16.80;72.40;;;;;;5052209;28;20021;-68
2023/05/05 12:31:18;;;;;;;1.70;0.70;;;16.70;73.10;;;;;;5052761;28;20048;-67
2023/05/05 12:33:44;;;;;;;0.85;0.60;;;16.70;73.60;;;;;;5052771;28;20021;-66
2023/05/05 12:36:11;;;;;;;1.17;0.63;;;16.70;73.70;;;;;;5052173;28;20506;-68
2023/05/05 12:38:37;;;;;;;0.70;0.50;;;16.70;73.60;;;;;;5051508;28;20021;-68
2023/05/05 12:41:03;;;;;;;1.08;0.60;;;16.70;73.80;;;;;;5052121;28;20521;-67
2023/05/05 12:43:33;;;;;;;0.70;0.50;;;16.80;73.70;;;;;;5052112;28;20064;-66
2023/05/05 12:46:09;;;;;;;1.60;0.60;;;16.80;73.60;;;;;;5052098;28;20475;-68
2023/05/05 12:48:40;;;;;;;0.85;0.55;;;16.90;73.70;;;;;;5052019;28;20056;-67
2023/05/05 12:51:17;;;;;;;1.52;0.60;;;16.90;73.40;;;;;;5052094;28;20017;-68
2023/05/05 12:53:44;;;;;;;0.80;0.50;;;17.00;73.60;;;;;;5052132;28;20626;-68